sensor_id;sensor_type;location;lat;lon;timestamp;P1;durP1;ratioP1;P2;durP2;ratioP2
77563;SDS011;66703;48.076;9.220;2023-02-17T00:00:25;23.70;;;21.60;;
77563;SDS011;66703;48.076;9.220;2023-02-17T00:02:54;20.75;;;18.75;;
77563;SDS011;66703;48.076;9.220;2023-02-17T00:05:22;21.10;;;19.23;;
77563;SDS011;66703;48.076;9.220;2023-02-17T00:07:48;22.52;;;18.20;;
77563;SDS011;66703;48.076;9.220;2023-02-17T00:10:14;20.67;;;18.27;;
77563;SDS011;66703;48.076;9.220;2023-02-17T00:12:39;21.27;;;18.02;;
77563;SDS011;66703;48.076;9.220;2023-02-17T00:15:05;21.05;;;17.95;;
77563;SDS011;66703;48.076;9.220;2023-02-17T00:17:31;23.30;;;20.98;;
77563;SDS011;66703;48.076;9.220;2023-02-17T00:19:56;19.38;;;17.38;;
77563;SDS011;66703;48.076;9.220;2023-02-17T00:22:22;22.27;;;17.63;;
77563;SDS011;66703;48.076;9.220;2023-02-17T00:24:47;23.00;;;18.83;;
77563;SDS011;66703;48.076;9.220;2023-02-17T00:27:12;20.50;;;18.52;;
77563;SDS011;66703;48.076;9.220;2023-02-17T00:29:38;18.33;;;16.33;;
77563;SDS011;66703;48.076;9.220;2023-02-17T00:32:03;23.05;;;20.98;;
77563;SDS011;66703;48.076;9.220;2023-02-17T00:34:29;21.42;;;19.25;;
77563;SDS011;66703;48.076;9.220;2023-02-17T00:36:54;20.08;;;18.27;;
77563;SDS011;66703;48.076;9.220;2023-02-17T00:39:20;22.08;;;20.00;;
77563;SDS011;66703;48.076;9.220;2023-02-17T00:41:45;23.50;;;21.00;;
77563;SDS011;66703;48.076;9.220;2023-02-17T00:44:17;23.50;;;21.42;;
77563;SDS011;66703;48.076;9.220;2023-02-17T00:46:44;25.88;;;23.50;;
77563;SDS011;66703;48.076;9.220;2023-02-17T00:49:20;28.65;;;25.95;;
77563;SDS011;66703;48.076;9.220;2023-02-17T00:51:47;22.80;;;20.42;;
77563;SDS011;66703;48.076;9.220;2023-02-17T00:54:13;20.98;;;18.88;;
77563;SDS011;66703;48.076;9.220;2023-02-17T00:56:39;19.83;;;17.70;;
77563;SDS011;66703;48.076;9.220;2023-02-17T00:59:05;21.60;;;19.38;;
77563;SDS011;66703;48.076;9.220;2023-02-17T01:01:31;22.90;;;20.13;;
77563;SDS011;66703;48.076;9.220;2023-02-17T01:03:57;23.25;;;21.05;;
77563;SDS011;66703;48.076;9.220;2023-02-17T01:06:30;18.27;;;16.48;;
77563;SDS011;66703;48.076;9.220;2023-02-17T01:08:56;19.88;;;17.85;;
77563;SDS011;66703;48.076;9.220;2023-02-17T01:11:23;19.13;;;16.17;;
77563;SDS011;66703;48.076;9.220;2023-02-17T01:13:51;16.65;;;14.95;;
77563;SDS011;66703;48.076;9.220;2023-02-17T01:16:18;16.40;;;14.70;;
77563;SDS011;66703;48.076;9.220;2023-02-17T01:18:45;20.05;;;18.27;;
77563;SDS011;66703;48.076;9.220;2023-02-17T01:21:17;22.65;;;20.63;;
77563;SDS011;66703;48.076;9.220;2023-02-17T01:23:44;20.13;;;18.15;;
77563;SDS011;66703;48.076;9.220;2023-02-17T01:26:17;20.02;;;18.10;;
77563;SDS011;66703;48.076;9.220;2023-02-17T01:28:44;17.35;;;15.73;;
77563;SDS011;66703;48.076;9.220;2023-02-17T01:31:10;19.77;;;17.80;;
77563;SDS011;66703;48.076;9.220;2023-02-17T01:33:36;20.33;;;18.60;;
77563;SDS011;66703;48.076;9.220;2023-02-17T01:36:03;21.52;;;19.42;;
77563;SDS011;66703;48.076;9.220;2023-02-17T01:38:29;20.52;;;18.50;;
77563;SDS011;66703;48.076;9.220;2023-02-17T01:40:54;19.33;;;17.33;;
77563;SDS011;66703;48.076;9.220;2023-02-17T01:43:20;17.38;;;15.75;;
77563;SDS011;66703;48.076;9.220;2023-02-17T01:46:04;24.10;;;22.02;;
77563;SDS011;66703;48.076;9.220;2023-02-17T01:51:15;17.80;;;15.60;;
77563;SDS011;66703;48.076;9.220;2023-02-17T01:56:16;19.08;;;17.38;;
77563;SDS011;66703;48.076;9.220;2023-02-17T01:58:43;18.92;;;17.00;;
77563;SDS011;66703;48.076;9.220;2023-02-17T02:01:11;18.80;;;16.65;;
77563;SDS011;66703;48.076;9.220;2023-02-17T02:03:37;28.25;;;25.75;;
77563;SDS011;66703;48.076;9.220;2023-02-17T02:06:04;20.40;;;18.50;;
77563;SDS011;66703;48.076;9.220;2023-02-17T02:08:33;20.27;;;18.27;;
77563;SDS011;66703;48.076;9.220;2023-02-17T02:11:19;18.88;;;17.17;;
77563;SDS011;66703;48.076;9.220;2023-02-17T02:13:45;19.63;;;16.77;;
77563;SDS011;66703;48.076;9.220;2023-02-17T02:16:27;29.77;;;27.58;;
77563;SDS011;66703;48.076;9.220;2023-02-17T02:24:58;18.33;;;16.58;;
77563;SDS011;66703;48.076;9.220;2023-02-17T02:27:37;18.13;;;15.52;;
77563;SDS011;66703;48.076;9.220;2023-02-17T02:35:44;15.93;;;14.15;;
77563;SDS011;66703;48.076;9.220;2023-02-17T02:38:18;18.85;;;16.73;;
77563;SDS011;66703;48.076;9.220;2023-02-17T02:40:56;21.00;;;19.08;;
77563;SDS011;66703;48.076;9.220;2023-02-17T02:43:35;26.52;;;24.30;;
77563;SDS011;66703;48.076;9.220;2023-02-17T02:46:00;20.30;;;18.63;;
77563;SDS011;66703;48.076;9.220;2023-02-17T02:48:25;17.55;;;15.82;;
77563;SDS011;66703;48.076;9.220;2023-02-17T02:50:56;19.45;;;17.60;;
77563;SDS011;66703;48.076;9.220;2023-02-17T03:01:48;18.70;;;16.88;;
77563;SDS011;66703;48.076;9.220;2023-02-17T03:04:32;16.63;;;15.13;;
77563;SDS011;66703;48.076;9.220;2023-02-17T03:07:10;23.00;;;21.00;;
77563;SDS011;66703;48.076;9.220;2023-02-17T03:09:46;16.65;;;15.25;;
77563;SDS011;66703;48.076;9.220;2023-02-17T03:12:14;18.67;;;16.85;;
77563;SDS011;66703;48.076;9.220;2023-02-17T03:14:40;17.85;;;16.33;;
77563;SDS011;66703;48.076;9.220;2023-02-17T03:17:06;19.90;;;18.17;;
77563;SDS011;66703;48.076;9.220;2023-02-17T03:19:32;18.45;;;16.55;;
77563;SDS011;66703;48.076;9.220;2023-02-17T03:22:03;16.20;;;14.55;;
77563;SDS011;66703;48.076;9.220;2023-02-17T03:24:32;18.52;;;15.70;;
77563;SDS011;66703;48.076;9.220;2023-02-17T03:26:58;15.82;;;14.30;;
77563;SDS011;66703;48.076;9.220;2023-02-17T03:29:23;15.25;;;13.50;;
77563;SDS011;66703;48.076;9.220;2023-02-17T03:31:48;17.83;;;16.25;;
77563;SDS011;66703;48.076;9.220;2023-02-17T03:34:14;16.20;;;14.63;;
77563;SDS011;66703;48.076;9.220;2023-02-17T03:36:39;14.73;;;13.30;;
77563;SDS011;66703;48.076;9.220;2023-02-17T03:39:05;18.90;;;17.27;;
77563;SDS011;66703;48.076;9.220;2023-02-17T03:41:30;19.30;;;17.77;;
77563;SDS011;66703;48.076;9.220;2023-02-17T03:43:55;29.27;;;26.98;;
77563;SDS011;66703;48.076;9.220;2023-02-17T03:46:21;17.98;;;15.30;;
77563;SDS011;66703;48.076;9.220;2023-02-17T03:48:46;18.70;;;16.98;;
77563;SDS011;66703;48.076;9.220;2023-02-17T03:51:12;19.42;;;17.20;;
77563;SDS011;66703;48.076;9.220;2023-02-17T03:53:39;24.17;;;22.38;;
77563;SDS011;66703;48.076;9.220;2023-02-17T03:56:05;17.02;;;15.48;;
77563;SDS011;66703;48.076;9.220;2023-02-17T03:58:31;16.40;;;14.95;;
77563;SDS011;66703;48.076;9.220;2023-02-17T04:00:56;12.73;;;11.52;;
77563;SDS011;66703;48.076;9.220;2023-02-17T04:03:21;14.75;;;13.27;;
77563;SDS011;66703;48.076;9.220;2023-02-17T04:05:47;15.75;;;14.35;;
77563;SDS011;66703;48.076;9.220;2023-02-17T04:08:15;17.15;;;15.15;;
77563;SDS011;66703;48.076;9.220;2023-02-17T04:10:41;17.05;;;15.50;;
77563;SDS011;66703;48.076;9.220;2023-02-17T04:13:06;17.48;;;15.93;;
77563;SDS011;66703;48.076;9.220;2023-02-17T04:15:31;18.33;;;16.75;;
77563;SDS011;66703;48.076;9.220;2023-02-17T04:17:57;20.35;;;18.55;;
77563;SDS011;66703;48.076;9.220;2023-02-17T04:20:23;15.23;;;13.93;;
77563;SDS011;66703;48.076;9.220;2023-02-17T04:22:48;17.58;;;16.08;;
77563;SDS011;66703;48.076;9.220;2023-02-17T04:25:19;14.90;;;13.35;;
77563;SDS011;66703;48.076;9.220;2023-02-17T04:27:45;16.25;;;14.57;;
77563;SDS011;66703;48.076;9.220;2023-02-17T04:30:10;15.35;;;13.85;;
77563;SDS011;66703;48.076;9.220;2023-02-17T04:32:36;15.23;;;13.73;;
77563;SDS011;66703;48.076;9.220;2023-02-17T04:35:01;15.38;;;13.98;;
77563;SDS011;66703;48.076;9.220;2023-02-17T04:37:30;14.07;;;12.65;;
77563;SDS011;66703;48.076;9.220;2023-02-17T04:39:55;13.70;;;11.68;;
77563;SDS011;66703;48.076;9.220;2023-02-17T04:42:20;17.10;;;15.43;;
77563;SDS011;66703;48.076;9.220;2023-02-17T04:44:46;11.80;;;10.65;;
77563;SDS011;66703;48.076;9.220;2023-02-17T04:47:11;14.93;;;13.57;;
77563;SDS011;66703;48.076;9.220;2023-02-17T04:49:44;16.75;;;15.10;;
77563;SDS011;66703;48.076;9.220;2023-02-17T04:52:09;16.40;;;15.05;;
77563;SDS011;66703;48.076;9.220;2023-02-17T04:54:35;14.40;;;11.88;;
77563;SDS011;66703;48.076;9.220;2023-02-17T04:57:00;21.75;;;19.95;;
77563;SDS011;66703;48.076;9.220;2023-02-17T04:59:25;17.88;;;16.08;;
77563;SDS011;66703;48.076;9.220;2023-02-17T05:01:54;14.15;;;12.73;;
77563;SDS011;66703;48.076;9.220;2023-02-17T05:04:22;23.20;;;21.50;;
77563;SDS011;66703;48.076;9.220;2023-02-17T05:06:47;18.35;;;16.80;;
77563;SDS011;66703;48.076;9.220;2023-02-17T05:09:12;16.92;;;15.30;;
77563;SDS011;66703;48.076;9.220;2023-02-17T05:11:38;15.07;;;13.40;;
77563;SDS011;66703;48.076;9.220;2023-02-17T05:14:03;16.23;;;14.85;;
77563;SDS011;66703;48.076;9.220;2023-02-17T05:16:28;19.20;;;17.25;;
77563;SDS011;66703;48.076;9.220;2023-02-17T05:18:54;18.38;;;16.75;;
77563;SDS011;66703;48.076;9.220;2023-02-17T05:21:19;17.05;;;15.30;;
77563;SDS011;66703;48.076;9.220;2023-02-17T05:23:45;16.02;;;14.05;;
77563;SDS011;66703;48.076;9.220;2023-02-17T05:26:10;21.00;;;19.35;;
77563;SDS011;66703;48.076;9.220;2023-02-17T05:28:36;15.85;;;14.43;;
77563;SDS011;66703;48.076;9.220;2023-02-17T05:31:02;17.58;;;15.07;;
77563;SDS011;66703;48.076;9.220;2023-02-17T05:33:27;19.27;;;17.52;;
77563;SDS011;66703;48.076;9.220;2023-02-17T05:35:53;14.23;;;12.88;;
77563;SDS011;66703;48.076;9.220;2023-02-17T05:38:18;17.80;;;15.82;;
77563;SDS011;66703;48.076;9.220;2023-02-17T05:40:44;14.45;;;12.90;;
77563;SDS011;66703;48.076;9.220;2023-02-17T05:43:09;13.98;;;12.70;;
77563;SDS011;66703;48.076;9.220;2023-02-17T05:45:34;13.00;;;11.80;;
77563;SDS011;66703;48.076;9.220;2023-02-17T05:48:00;12.75;;;11.55;;
77563;SDS011;66703;48.076;9.220;2023-02-17T05:50:25;16.52;;;15.10;;
77563;SDS011;66703;48.076;9.220;2023-02-17T05:52:51;14.38;;;13.00;;
77563;SDS011;66703;48.076;9.220;2023-02-17T05:55:16;14.95;;;13.57;;
77563;SDS011;66703;48.076;9.220;2023-02-17T05:57:41;15.88;;;14.55;;
77563;SDS011;66703;48.076;9.220;2023-02-17T06:00:07;13.95;;;12.65;;
77563;SDS011;66703;48.076;9.220;2023-02-17T06:02:33;14.30;;;12.80;;
77563;SDS011;66703;48.076;9.220;2023-02-17T06:04:58;14.52;;;13.23;;
77563;SDS011;66703;48.076;9.220;2023-02-17T06:07:23;14.68;;;13.25;;
77563;SDS011;66703;48.076;9.220;2023-02-17T06:09:49;21.10;;;19.38;;
77563;SDS011;66703;48.076;9.220;2023-02-17T06:12:14;18.63;;;17.27;;
77563;SDS011;66703;48.076;9.220;2023-02-17T06:14:40;16.27;;;14.90;;
77563;SDS011;66703;48.076;9.220;2023-02-17T06:17:05;14.73;;;11.90;;
77563;SDS011;66703;48.076;9.220;2023-02-17T06:19:30;17.30;;;15.50;;
77563;SDS011;66703;48.076;9.220;2023-02-17T06:21:56;16.52;;;15.13;;
77563;SDS011;66703;48.076;9.220;2023-02-17T06:24:22;15.43;;;13.80;;
77563;SDS011;66703;48.076;9.220;2023-02-17T06:26:48;16.15;;;14.57;;
77563;SDS011;66703;48.076;9.220;2023-02-17T06:29:17;15.82;;;14.32;;
77563;SDS011;66703;48.076;9.220;2023-02-17T06:31:42;14.70;;;13.40;;
77563;SDS011;66703;48.076;9.220;2023-02-17T06:34:07;17.00;;;15.88;;
77563;SDS011;66703;48.076;9.220;2023-02-17T06:36:33;15.35;;;14.23;;
77563;SDS011;66703;48.076;9.220;2023-02-17T06:38:58;17.58;;;15.85;;
77563;SDS011;66703;48.076;9.220;2023-02-17T06:41:24;14.35;;;13.15;;
77563;SDS011;66703;48.076;9.220;2023-02-17T06:43:49;13.50;;;12.35;;
77563;SDS011;66703;48.076;9.220;2023-02-17T06:46:14;17.55;;;16.33;;
77563;SDS011;66703;48.076;9.220;2023-02-17T06:48:40;19.85;;;18.13;;
77563;SDS011;66703;48.076;9.220;2023-02-17T06:51:05;14.68;;;13.35;;
77563;SDS011;66703;48.076;9.220;2023-02-17T06:53:31;13.90;;;11.93;;
77563;SDS011;66703;48.076;9.220;2023-02-17T06:55:56;17.42;;;16.05;;
77563;SDS011;66703;48.076;9.220;2023-02-17T06:58:21;12.07;;;10.95;;
77563;SDS011;66703;48.076;9.220;2023-02-17T07:00:47;14.10;;;12.88;;
77563;SDS011;66703;48.076;9.220;2023-02-17T07:03:12;15.30;;;13.80;;
77563;SDS011;66703;48.076;9.220;2023-02-17T07:05:38;10.50;;;9.50;;
77563;SDS011;66703;48.076;9.220;2023-02-17T07:08:04;22.30;;;20.65;;
77563;SDS011;66703;48.076;9.220;2023-02-17T07:10:30;14.48;;;12.77;;
77563;SDS011;66703;48.076;9.220;2023-02-17T07:12:56;12.52;;;11.32;;
77563;SDS011;66703;48.076;9.220;2023-02-17T07:15:21;15.18;;;13.77;;
77563;SDS011;66703;48.076;9.220;2023-02-17T07:17:46;15.52;;;12.95;;
77563;SDS011;66703;48.076;9.220;2023-02-17T07:20:12;23.77;;;22.38;;
77563;SDS011;66703;48.076;9.220;2023-02-17T07:22:37;18.48;;;16.95;;
77563;SDS011;66703;48.076;9.220;2023-02-17T07:25:03;13.55;;;12.48;;
77563;SDS011;66703;48.076;9.220;2023-02-17T07:27:29;14.48;;;13.18;;
77563;SDS011;66703;48.076;9.220;2023-02-17T07:29:55;14.93;;;13.57;;
77563;SDS011;66703;48.076;9.220;2023-02-17T07:32:21;13.38;;;12.18;;
77563;SDS011;66703;48.076;9.220;2023-02-17T07:34:46;12.52;;;11.32;;
77563;SDS011;66703;48.076;9.220;2023-02-17T07:37:11;14.70;;;13.32;;
77563;SDS011;66703;48.076;9.220;2023-02-17T07:39:37;13.43;;;11.77;;
77563;SDS011;66703;48.076;9.220;2023-02-17T07:42:02;12.90;;;11.15;;
77563;SDS011;66703;48.076;9.220;2023-02-17T07:44:29;13.95;;;13.00;;
77563;SDS011;66703;48.076;9.220;2023-02-17T07:46:54;12.10;;;10.82;;
77563;SDS011;66703;48.076;9.220;2023-02-17T07:49:20;11.57;;;10.55;;
77563;SDS011;66703;48.076;9.220;2023-02-17T07:51:45;11.43;;;10.32;;
77563;SDS011;66703;48.076;9.220;2023-02-17T07:54:11;14.32;;;12.00;;
77563;SDS011;66703;48.076;9.220;2023-02-17T07:56:37;12.23;;;10.70;;
77563;SDS011;66703;48.076;9.220;2023-02-17T07:59:02;13.60;;;10.02;;
77563;SDS011;66703;48.076;9.220;2023-02-17T08:01:28;13.57;;;12.25;;
77563;SDS011;66703;48.076;9.220;2023-02-17T08:03:54;12.50;;;11.50;;
77563;SDS011;66703;48.076;9.220;2023-02-17T08:06:21;10.43;;;9.63;;
77563;SDS011;66703;48.076;9.220;2023-02-17T08:08:49;13.27;;;12.10;;
77563;SDS011;66703;48.076;9.220;2023-02-17T08:11:33;12.35;;;11.20;;
77563;SDS011;66703;48.076;9.220;2023-02-17T08:14:18;11.18;;;10.35;;
77563;SDS011;66703;48.076;9.220;2023-02-17T08:16:45;9.05;;;8.20;;
77563;SDS011;66703;48.076;9.220;2023-02-17T08:19:10;14.18;;;9.35;;
77563;SDS011;66703;48.076;9.220;2023-02-17T08:21:35;9.77;;;8.95;;
77563;SDS011;66703;48.076;9.220;2023-02-17T08:24:01;10.68;;;9.73;;
77563;SDS011;66703;48.076;9.220;2023-02-17T08:26:26;12.77;;;11.82;;
77563;SDS011;66703;48.076;9.220;2023-02-17T08:28:52;9.70;;;8.77;;
77563;SDS011;66703;48.076;9.220;2023-02-17T08:31:21;8.95;;;7.30;;
77563;SDS011;66703;48.076;9.220;2023-02-17T08:33:52;10.30;;;8.93;;
77563;SDS011;66703;48.076;9.220;2023-02-17T08:36:18;9.15;;;8.00;;
77563;SDS011;66703;48.076;9.220;2023-02-17T08:38:49;8.48;;;6.80;;
77563;SDS011;66703;48.076;9.220;2023-02-17T08:41:16;8.27;;;7.53;;
77563;SDS011;66703;48.076;9.220;2023-02-17T08:43:44;11.25;;;8.00;;
77563;SDS011;66703;48.076;9.220;2023-02-17T08:46:10;10.27;;;8.18;;
77563;SDS011;66703;48.076;9.220;2023-02-17T08:48:37;12.25;;;11.20;;
77563;SDS011;66703;48.076;9.220;2023-02-17T08:51:03;11.75;;;10.57;;
77563;SDS011;66703;48.076;9.220;2023-02-17T08:53:28;9.05;;;7.82;;
77563;SDS011;66703;48.076;9.220;2023-02-17T08:55:54;8.75;;;8.05;;
77563;SDS011;66703;48.076;9.220;2023-02-17T08:58:19;8.20;;;6.63;;
77563;SDS011;66703;48.076;9.220;2023-02-17T09:00:45;11.15;;;10.13;;
77563;SDS011;66703;48.076;9.220;2023-02-17T09:03:10;11.85;;;10.82;;
77563;SDS011;66703;48.076;9.220;2023-02-17T09:05:35;8.50;;;6.75;;
77563;SDS011;66703;48.076;9.220;2023-02-17T09:08:01;10.32;;;9.60;;
77563;SDS011;66703;48.076;9.220;2023-02-17T09:10:27;7.97;;;6.00;;
77563;SDS011;66703;48.076;9.220;2023-02-17T09:12:52;8.07;;;7.35;;
77563;SDS011;66703;48.076;9.220;2023-02-17T09:15:18;8.13;;;7.40;;
77563;SDS011;66703;48.076;9.220;2023-02-17T09:17:43;6.38;;;5.88;;
77563;SDS011;66703;48.076;9.220;2023-02-17T09:20:09;6.95;;;6.22;;
77563;SDS011;66703;48.076;9.220;2023-02-17T09:22:35;9.27;;;8.60;;
77563;SDS011;66703;48.076;9.220;2023-02-17T09:25:01;8.40;;;7.68;;
77563;SDS011;66703;48.076;9.220;2023-02-17T09:27:26;7.80;;;7.30;;
77563;SDS011;66703;48.076;9.220;2023-02-17T09:29:52;7.90;;;7.30;;
77563;SDS011;66703;48.076;9.220;2023-02-17T09:32:17;8.27;;;7.68;;
77563;SDS011;66703;48.076;9.220;2023-02-17T09:34:42;6.50;;;5.90;;
77563;SDS011;66703;48.076;9.220;2023-02-17T09:37:17;6.05;;;5.53;;
77563;SDS011;66703;48.076;9.220;2023-02-17T09:39:43;6.45;;;5.80;;
77563;SDS011;66703;48.076;9.220;2023-02-17T09:42:12;6.43;;;5.93;;
77563;SDS011;66703;48.076;9.220;2023-02-17T09:44:43;7.78;;;7.15;;
77563;SDS011;66703;48.076;9.220;2023-02-17T09:47:17;7.32;;;6.70;;
77563;SDS011;66703;48.076;9.220;2023-02-17T09:49:50;7.72;;;6.55;;
77563;SDS011;66703;48.076;9.220;2023-02-17T09:55:02;6.10;;;5.55;;
77563;SDS011;66703;48.076;9.220;2023-02-17T09:57:33;6.13;;;5.53;;
77563;SDS011;66703;48.076;9.220;2023-02-17T10:00:14;5.82;;;5.35;;
77563;SDS011;66703;48.076;9.220;2023-02-17T10:03:14;5.72;;;4.60;;
77563;SDS011;66703;48.076;9.220;2023-02-17T10:05:39;5.60;;;5.05;;
77563;SDS011;66703;48.076;9.220;2023-02-17T10:11:30;6.13;;;4.95;;
77563;SDS011;66703;48.076;9.220;2023-02-17T10:13:51;8.75;;;4.72;;
77563;SDS011;66703;48.076;9.220;2023-02-17T10:16:20;5.25;;;4.78;;
77563;SDS011;66703;48.076;9.220;2023-02-17T10:18:56;5.43;;;5.03;;
77563;SDS011;66703;48.076;9.220;2023-02-17T10:21:26;5.05;;;4.13;;
77563;SDS011;66703;48.076;9.220;2023-02-17T10:23:53;4.60;;;4.13;;
77563;SDS011;66703;48.076;9.220;2023-02-17T10:32:03;5.70;;;5.20;;
77563;SDS011;66703;48.076;9.220;2023-02-17T10:34:41;6.88;;;6.15;;
77563;SDS011;66703;48.076;9.220;2023-02-17T10:37:39;7.45;;;6.85;;
77563;SDS011;66703;48.076;9.220;2023-02-17T10:40:27;8.63;;;6.90;;
77563;SDS011;66703;48.076;9.220;2023-02-17T10:42:57;5.10;;;4.70;;
77563;SDS011;66703;48.076;9.220;2023-02-17T10:45:29;7.13;;;6.55;;
77563;SDS011;66703;48.076;9.220;2023-02-17T10:48:14;6.18;;;5.55;;
77563;SDS011;66703;48.076;9.220;2023-02-17T10:50:44;6.07;;;4.70;;
77563;SDS011;66703;48.076;9.220;2023-02-17T10:53:17;6.35;;;5.00;;
77563;SDS011;66703;48.076;9.220;2023-02-17T10:58:30;6.13;;;5.70;;
77563;SDS011;66703;48.076;9.220;2023-02-17T11:00:57;5.35;;;4.93;;
77563;SDS011;66703;48.076;9.220;2023-02-17T11:03:27;5.63;;;5.20;;
77563;SDS011;66703;48.076;9.220;2023-02-17T11:05:54;6.80;;;6.30;;
77563;SDS011;66703;48.076;9.220;2023-02-17T11:08:27;5.70;;;5.20;;
77563;SDS011;66703;48.076;9.220;2023-02-17T11:11:02;6.32;;;5.45;;
77563;SDS011;66703;48.076;9.220;2023-02-17T11:13:34;7.05;;;6.35;;
77563;SDS011;66703;48.076;9.220;2023-02-17T11:16:02;9.75;;;9.13;;
77563;SDS011;66703;48.076;9.220;2023-02-17T11:18:29;6.07;;;4.43;;
77563;SDS011;66703;48.076;9.220;2023-02-17T11:21:01;7.50;;;6.90;;
77563;SDS011;66703;48.076;9.220;2023-02-17T11:23:31;6.32;;;5.80;;
77563;SDS011;66703;48.076;9.220;2023-02-17T11:25:58;5.20;;;4.78;;
77563;SDS011;66703;48.076;9.220;2023-02-17T11:28:34;6.28;;;5.70;;
77563;SDS011;66703;48.076;9.220;2023-02-17T11:31:00;7.03;;;5.03;;
77563;SDS011;66703;48.076;9.220;2023-02-17T11:36:02;6.68;;;6.15;;
77563;SDS011;66703;48.076;9.220;2023-02-17T11:38:33;6.45;;;5.95;;
77563;SDS011;66703;48.076;9.220;2023-02-17T11:41:06;7.55;;;7.05;;
77563;SDS011;66703;48.076;9.220;2023-02-17T11:43:33;4.95;;;4.50;;
77563;SDS011;66703;48.076;9.220;2023-02-17T12:03:19;4.95;;;4.18;;
77563;SDS011;66703;48.076;9.220;2023-02-17T12:17:12;3.55;;;3.15;;
77563;SDS011;66703;48.076;9.220;2023-02-17T12:38:13;6.20;;;4.40;;
77563;SDS011;66703;48.076;9.220;2023-02-17T12:40:42;7.53;;;7.15;;
77563;SDS011;66703;48.076;9.220;2023-02-17T12:43:27;5.13;;;4.82;;
77563;SDS011;66703;48.076;9.220;2023-02-17T12:45:58;4.03;;;3.75;;
77563;SDS011;66703;48.076;9.220;2023-02-17T12:50:58;4.35;;;3.20;;
77563;SDS011;66703;48.076;9.220;2023-02-17T12:58:41;4.05;;;3.75;;
77563;SDS011;66703;48.076;9.220;2023-02-17T13:01:08;3.35;;;3.05;;
77563;SDS011;66703;48.076;9.220;2023-02-17T13:03:36;4.18;;;3.97;;
77563;SDS011;66703;48.076;9.220;2023-02-17T13:06:18;4.15;;;3.83;;
77563;SDS011;66703;48.076;9.220;2023-02-17T13:09:07;3.70;;;3.50;;
77563;SDS011;66703;48.076;9.220;2023-02-17T13:11:42;3.05;;;2.75;;
77563;SDS011;66703;48.076;9.220;2023-02-17T13:14:37;3.65;;;3.35;;
77563;SDS011;66703;48.076;9.220;2023-02-17T13:17:04;4.00;;;3.72;;
77563;SDS011;66703;48.076;9.220;2023-02-17T13:19:30;3.47;;;3.17;;
77563;SDS011;66703;48.076;9.220;2023-02-17T13:21:58;3.83;;;3.53;;
77563;SDS011;66703;48.076;9.220;2023-02-17T13:24:31;3.78;;;3.47;;
77563;SDS011;66703;48.076;9.220;2023-02-17T13:27:10;6.43;;;6.13;;
77563;SDS011;66703;48.076;9.220;2023-02-17T13:29:56;4.30;;;4.10;;
77563;SDS011;66703;48.076;9.220;2023-02-17T13:32:26;4.63;;;3.45;;
77563;SDS011;66703;48.076;9.220;2023-02-17T13:37:49;4.82;;;4.53;;
77563;SDS011;66703;48.076;9.220;2023-02-17T13:42:42;2.55;;;2.38;;
77563;SDS011;66703;48.076;9.220;2023-02-17T13:47:46;3.13;;;2.92;;
77563;SDS011;66703;48.076;9.220;2023-02-17T13:50:31;3.20;;;3.00;;
77563;SDS011;66703;48.076;9.220;2023-02-17T13:52:57;2.88;;;2.67;;
77563;SDS011;66703;48.076;9.220;2023-02-17T13:55:23;1.85;;;1.75;;
77563;SDS011;66703;48.076;9.220;2023-02-17T13:57:55;2.42;;;2.33;;
77563;SDS011;66703;48.076;9.220;2023-02-17T14:00:23;2.53;;;2.35;;
77563;SDS011;66703;48.076;9.220;2023-02-17T14:02:51;2.67;;;2.47;;
77563;SDS011;66703;48.076;9.220;2023-02-17T14:05:22;3.40;;;3.20;;
77563;SDS011;66703;48.076;9.220;2023-02-17T14:07:51;2.45;;;2.35;;
77563;SDS011;66703;48.076;9.220;2023-02-17T14:10:23;2.70;;;2.60;;
77563;SDS011;66703;48.076;9.220;2023-02-17T14:12:50;3.42;;;3.22;;
77563;SDS011;66703;48.076;9.220;2023-02-17T14:15:18;3.78;;;3.63;;
77563;SDS011;66703;48.076;9.220;2023-02-17T14:17:48;2.80;;;2.60;;
77563;SDS011;66703;48.076;9.220;2023-02-17T14:20:27;2.35;;;2.15;;
77563;SDS011;66703;48.076;9.220;2023-02-17T14:22:59;3.75;;;3.55;;
77563;SDS011;66703;48.076;9.220;2023-02-17T14:25:37;3.70;;;3.47;;
77563;SDS011;66703;48.076;9.220;2023-02-17T14:28:04;2.97;;;2.78;;
77563;SDS011;66703;48.076;9.220;2023-02-17T14:30:42;2.20;;;2.10;;
77563;SDS011;66703;48.076;9.220;2023-02-17T14:33:23;2.85;;;2.72;;
77563;SDS011;66703;48.076;9.220;2023-02-17T14:35:59;3.83;;;3.63;;
77563;SDS011;66703;48.076;9.220;2023-02-17T14:40:59;3.83;;;3.63;;
77563;SDS011;66703;48.076;9.220;2023-02-17T14:43:25;2.15;;;2.05;;
77563;SDS011;66703;48.076;9.220;2023-02-17T14:45:50;3.58;;;3.38;;
77563;SDS011;66703;48.076;9.220;2023-02-17T14:48:16;4.13;;;3.92;;
77563;SDS011;66703;48.076;9.220;2023-02-17T14:50:41;3.72;;;3.30;;
77563;SDS011;66703;48.076;9.220;2023-02-17T14:58:18;4.25;;;3.95;;
77563;SDS011;66703;48.076;9.220;2023-02-17T15:00:46;4.05;;;2.88;;
77563;SDS011;66703;48.076;9.220;2023-02-17T15:03:12;3.30;;;3.10;;
77563;SDS011;66703;48.076;9.220;2023-02-17T15:05:38;4.00;;;3.80;;
77563;SDS011;66703;48.076;9.220;2023-02-17T15:08:03;3.40;;;3.20;;
77563;SDS011;66703;48.076;9.220;2023-02-17T15:10:28;6.82;;;6.53;;
77563;SDS011;66703;48.076;9.220;2023-02-17T15:12:54;3.35;;;3.15;;
77563;SDS011;66703;48.076;9.220;2023-02-17T15:15:20;3.10;;;2.88;;
77563;SDS011;66703;48.076;9.220;2023-02-17T15:17:45;5.00;;;4.70;;
77563;SDS011;66703;48.076;9.220;2023-02-17T15:20:12;4.43;;;4.05;;
77563;SDS011;66703;48.076;9.220;2023-02-17T15:22:39;4.10;;;3.83;;
77563;SDS011;66703;48.076;9.220;2023-02-17T15:25:16;4.18;;;3.97;;
77563;SDS011;66703;48.076;9.220;2023-02-17T15:27:44;3.08;;;2.88;;
77563;SDS011;66703;48.076;9.220;2023-02-17T15:30:11;3.17;;;2.97;;
77563;SDS011;66703;48.076;9.220;2023-02-17T15:32:38;3.03;;;2.83;;
77563;SDS011;66703;48.076;9.220;2023-02-17T15:35:11;2.95;;;2.75;;
77563;SDS011;66703;48.076;9.220;2023-02-17T15:37:43;4.82;;;4.53;;
77563;SDS011;66703;48.076;9.220;2023-02-17T15:40:11;2.97;;;2.78;;
77563;SDS011;66703;48.076;9.220;2023-02-17T15:42:38;2.92;;;2.63;;
77563;SDS011;66703;48.076;9.220;2023-02-17T15:45:03;3.72;;;3.42;;
77563;SDS011;66703;48.076;9.220;2023-02-17T15:47:29;2.92;;;2.72;;
77563;SDS011;66703;48.076;9.220;2023-02-17T15:49:54;3.65;;;3.38;;
77563;SDS011;66703;48.076;9.220;2023-02-17T15:52:20;10.48;;;9.57;;
77563;SDS011;66703;48.076;9.220;2023-02-17T15:54:45;3.50;;;3.30;;
77563;SDS011;66703;48.076;9.220;2023-02-17T15:57:22;3.92;;;3.63;;
77563;SDS011;66703;48.076;9.220;2023-02-17T15:59:48;4.03;;;3.72;;
77563;SDS011;66703;48.076;9.220;2023-02-17T16:02:16;5.80;;;5.40;;
77563;SDS011;66703;48.076;9.220;2023-02-17T16:04:43;3.97;;;3.67;;
77563;SDS011;66703;48.076;9.220;2023-02-17T16:07:09;3.53;;;3.22;;
77563;SDS011;66703;48.076;9.220;2023-02-17T16:09:35;4.70;;;4.30;;
77563;SDS011;66703;48.076;9.220;2023-02-17T16:12:00;4.00;;;3.80;;
77563;SDS011;66703;48.076;9.220;2023-02-17T16:16:57;4.07;;;3.70;;
77563;SDS011;66703;48.076;9.220;2023-02-17T16:19:23;4.57;;;4.28;;
77563;SDS011;66703;48.076;9.220;2023-02-17T16:21:48;6.88;;;6.28;;
77563;SDS011;66703;48.076;9.220;2023-02-17T16:24:14;6.00;;;5.60;;
77563;SDS011;66703;48.076;9.220;2023-02-17T16:26:39;4.72;;;4.40;;
77563;SDS011;66703;48.076;9.220;2023-02-17T16:29:23;4.05;;;3.83;;
77563;SDS011;66703;48.076;9.220;2023-02-17T16:31:49;4.05;;;3.75;;
77563;SDS011;66703;48.076;9.220;2023-02-17T16:34:21;5.45;;;5.15;;